createdAt,value
2017-11-20T00:00:12.779Z,5.93
2017-11-20T00:02:05.757Z,5.84
2017-11-20T00:03:05.813Z,5.91
2017-11-20T00:04:58.811Z,5.94
2017-11-20T00:05:58.847Z,5.91
2017-11-20T00:07:51.831Z,5.90
2017-11-20T00:08:51.889Z,5.99
2017-11-20T00:10:44.885Z,5.93
2017-11-20T00:11:44.922Z,5.89
2017-11-20T00:13:37.917Z,5.99
2017-11-20T00:14:37.958Z,5.97
2017-11-20T00:16:30.932Z,5.94
2017-11-20T00:17:30.986Z,5.98
2017-11-20T00:19:24.484Z,5.86
2017-11-20T00:20:24.528Z,5.90
2017-11-20T00:22:17.504Z,5.86
2017-11-20T00:23:17.563Z,5.82
2017-11-20T00:25:10.563Z,5.76
2017-11-20T00:26:10.596Z,5.86
2017-11-20T00:28:03.573Z,5.87
2017-11-20T00:29:03.631Z,5.75
2017-11-20T00:30:56.634Z,5.82
2017-11-20T00:31:56.685Z,5.72
2017-11-20T00:33:49.665Z,5.73
2017-11-20T00:34:49.699Z,5.72
2017-11-20T00:36:42.688Z,5.69
2017-11-20T00:37:42.735Z,5.71
2017-11-20T00:39:35.734Z,5.80
2017-11-20T00:40:35.768Z,5.75
2017-11-20T00:42:28.744Z,5.66
2017-11-20T00:43:28.799Z,5.75
2017-11-20T00:45:21.800Z,5.83
2017-11-20T00:46:21.836Z,5.73
2017-11-20T00:48:14.814Z,5.73
2017-11-20T00:49:14.869Z,5.79
2017-11-20T00:51:07.867Z,5.84
2017-11-20T00:52:07.902Z,5.90
2017-11-20T00:54:00.900Z,5.76
2017-11-20T00:55:00.936Z,5.87
2017-11-20T00:56:53.919Z,5.82
2017-11-20T00:57:53.987Z,5.87
2017-11-20T00:59:46.978Z,5.86
2017-11-20T01:00:47.006Z,5.72
2017-11-20T01:02:39.985Z,5.80
2017-11-20T01:03:40.042Z,5.75
2017-11-20T01:05:33.036Z,5.72
2017-11-20T01:06:33.073Z,5.72
2017-11-20T01:08:26.055Z,5.65
2017-11-20T01:09:26.110Z,5.71
2017-11-20T01:11:19.117Z,5.64
2017-11-20T01:12:19.148Z,5.61
2017-11-20T01:14:12.144Z,5.62
2017-11-20T01:15:12.180Z,5.50
2017-11-20T01:17:05.176Z,5.51
2017-11-20T01:18:05.210Z,5.47
2017-11-20T01:19:58.206Z,5.51
2017-11-20T01:20:58.242Z,5.48
2017-11-20T01:22:51.221Z,5.53
2017-11-20T01:23:51.274Z,5.50
2017-11-20T01:25:44.273Z,5.56
2017-11-20T01:26:44.309Z,5.53
2017-11-20T01:28:37.297Z,5.54
2017-11-20T01:29:37.348Z,5.53
2017-11-20T01:31:30.373Z,5.64
2017-11-20T01:32:30.380Z,5.65
2017-11-20T01:34:23.394Z,5.64
2017-11-20T01:35:23.425Z,5.71
2017-11-20T01:37:16.403Z,5.71
2017-11-20T01:38:16.458Z,5.82
2017-11-20T01:40:09.455Z,5.72
2017-11-20T01:41:09.491Z,5.83
2017-11-20T01:43:02.477Z,5.94
2017-11-20T01:44:02.531Z,5.89
2017-11-20T01:45:55.548Z,5.97
2017-11-20T01:46:55.569Z,5.90
2017-11-20T01:48:48.547Z,5.93
2017-11-20T01:49:48.611Z,5.99
2017-11-20T01:51:41.605Z,6.07
2017-11-20T01:52:41.640Z,6.07
2017-11-20T01:54:34.641Z,6.05
2017-11-20T01:55:34.677Z,6.04
2017-11-20T01:57:27.653Z,6.12
2017-11-20T01:58:27.711Z,6.02
2017-11-20T02:00:20.710Z,6.05
2017-11-20T02:01:20.742Z,6.09
2017-11-20T02:03:13.719Z,6.08
2017-11-20T02:04:13.885Z,6.07
2017-11-20T02:06:06.772Z,6.12
2017-11-20T02:07:06.815Z,6.01
2017-11-20T02:08:59.791Z,6.07
2017-11-20T02:09:59.843Z,6.07
2017-11-20T02:11:52.856Z,6.04
2017-11-20T02:12:52.881Z,6.04
2017-11-20T02:14:45.881Z,6.04
2017-11-20T02:15:45.917Z,6.08
2017-11-20T02:17:39.401Z,6.09
2017-11-20T02:18:39.455Z,6.08
2017-11-20T02:20:32.453Z,6.09
2017-11-20T02:21:32.492Z,6.04
2017-11-20T02:23:25.468Z,6.16
2017-11-20T02:24:25.529Z,6.22
2017-11-20T02:26:18.525Z,6.17
2017-11-20T02:27:18.569Z,6.16
2017-11-20T02:29:11.547Z,6.24
2017-11-20T02:30:11.604Z,6.14
2017-11-20T02:32:04.600Z,6.27
2017-11-20T02:33:04.634Z,6.16
2017-11-20T02:34:57.632Z,6.19
2017-11-20T02:35:57.669Z,6.22
2017-11-20T02:37:50.652Z,6.17
2017-11-20T02:38:50.705Z,6.22
2017-11-20T02:40:43.699Z,6.16
2017-11-20T02:41:43.739Z,6.12
2017-11-20T02:43:36.719Z,6.28
2017-11-20T02:44:36.771Z,6.28
2017-11-20T02:46:29.768Z,6.14
2017-11-20T02:47:29.806Z,6.27
2017-11-20T02:49:22.780Z,6.24
2017-11-20T02:50:22.838Z,6.24
2017-11-20T02:52:15.868Z,6.24
2017-11-20T02:53:15.880Z,6.26
2017-11-20T02:55:08.889Z,6.24
2017-11-20T02:56:08.917Z,6.26
2017-11-20T02:58:01.890Z,6.19
2017-11-20T02:59:01.946Z,6.14
2017-11-20T03:00:54.945Z,6.17
2017-11-20T03:01:54.980Z,6.08
2017-11-20T03:03:47.962Z,6.07
2017-11-20T03:04:48.012Z,6.04
2017-11-20T03:06:41.021Z,6.08
2017-11-20T03:07:41.047Z,5.98
2017-11-20T03:09:34.027Z,6.01
2017-11-20T03:10:34.083Z,5.98
2017-11-20T03:12:27.084Z,6.04
2017-11-20T03:13:27.118Z,6.01
2017-11-20T03:15:20.115Z,5.97
2017-11-20T03:16:20.147Z,5.99
2017-11-20T03:18:13.635Z,6.04
2017-11-20T03:19:13.702Z,5.87
2017-11-20T03:21:06.686Z,5.89
2017-11-20T03:22:06.741Z,5.97
2017-11-20T03:23:59.700Z,5.94
2017-11-20T03:24:59.755Z,5.94
2017-11-20T03:26:52.767Z,5.99
2017-11-20T03:27:52.792Z,5.90
2017-11-20T03:29:45.795Z,5.93
2017-11-20T03:30:45.829Z,5.94
2017-11-20T03:32:38.808Z,5.93
2017-11-20T03:33:38.858Z,5.89
2017-11-20T03:35:31.859Z,5.90
2017-11-20T03:36:31.901Z,5.89
2017-11-20T03:38:24.868Z,5.91
2017-11-20T03:39:24.922Z,5.93
2017-11-20T03:41:17.920Z,5.98
2017-11-20T03:42:17.960Z,5.91
2017-11-20T03:44:10.940Z,5.94
2017-11-20T03:45:10.996Z,5.98
2017-11-20T03:47:03.997Z,5.98
2017-11-20T03:48:04.032Z,6.02
2017-11-20T03:49:57.030Z,5.97
2017-11-20T03:50:57.064Z,5.99
2017-11-20T03:52:50.049Z,5.90
2017-11-20T03:53:50.102Z,5.90
2017-11-20T03:55:43.099Z,5.98
2017-11-20T03:56:43.137Z,5.99
2017-11-20T03:58:36.109Z,5.90
2017-11-20T03:59:36.371Z,6.05
2017-11-20T04:01:29.170Z,5.98
2017-11-20T04:02:29.204Z,6.07
2017-11-20T04:04:22.182Z,6.05
2017-11-20T04:05:22.239Z,5.97
2017-11-20T04:07:15.235Z,6.05
2017-11-20T04:08:15.271Z,6.02
2017-11-20T04:10:08.266Z,6.08
2017-11-20T04:11:08.303Z,6.02
2017-11-20T04:13:01.286Z,5.94
2017-11-20T04:14:01.336Z,5.94
2017-11-20T04:15:54.334Z,5.98
2017-11-20T04:16:54.370Z,5.98
2017-11-20T04:18:47.360Z,5.98
2017-11-20T04:19:47.409Z,6.04
2017-11-20T04:21:40.410Z,5.98
2017-11-20T04:22:40.442Z,6.04
2017-11-20T04:24:33.421Z,6.09
2017-11-20T04:25:33.477Z,6.02
2017-11-20T04:27:26.481Z,6.07
2017-11-20T04:28:26.518Z,6.01
2017-11-20T04:30:19.516Z,6.17
2017-11-20T04:31:19.551Z,6.04
2017-11-20T04:33:12.525Z,6.01
2017-11-20T04:34:12.586Z,6.09
2017-11-20T04:36:05.579Z,6.14
2017-11-20T04:37:05.615Z,6.05
2017-11-20T04:38:58.590Z,6.14
2017-11-20T04:39:58.652Z,6.19
2017-11-20T04:41:51.649Z,6.12
2017-11-20T04:42:51.687Z,6.17
2017-11-20T04:44:44.664Z,6.17
2017-11-20T04:45:44.721Z,6.27
2017-11-20T04:47:37.721Z,6.14
2017-11-20T04:48:37.755Z,6.14
2017-11-20T04:50:30.755Z,6.17
2017-11-20T04:51:30.789Z,6.20
2017-11-20T04:53:23.766Z,6.17
2017-11-20T04:54:23.821Z,6.30
2017-11-20T04:56:16.822Z,6.20
2017-11-20T04:57:16.855Z,6.17
2017-11-20T04:59:09.831Z,6.26
2017-11-20T05:00:09.888Z,6.09
2017-11-20T05:02:02.893Z,6.12
2017-11-20T05:03:02.924Z,6.16
2017-11-20T05:04:55.914Z,6.09
2017-11-20T05:05:55.955Z,6.17
2017-11-20T05:07:48.976Z,6.14
2017-11-20T05:08:49.000Z,6.08
2017-11-20T05:10:41.995Z,6.14
2017-11-20T05:11:42.040Z,6.12
2017-11-20T05:13:35.007Z,6.09
2017-11-20T05:14:35.063Z,6.09
2017-11-20T05:16:28.064Z,6.16
2017-11-20T05:17:28.102Z,6.22
2017-11-20T05:19:21.093Z,6.09
2017-11-20T05:20:21.139Z,6.08
2017-11-20T05:22:14.653Z,6.12
2017-11-20T05:23:14.680Z,6.01
2017-11-20T05:25:07.672Z,6.07
2017-11-20T05:26:07.732Z,6.12
2017-11-20T05:28:00.722Z,6.09
2017-11-20T05:29:00.759Z,6.01
2017-11-20T05:30:53.755Z,6.08
2017-11-20T05:31:53.804Z,6.01
2017-11-20T05:33:46.778Z,6.05
2017-11-20T05:34:46.828Z,5.97
2017-11-20T05:36:39.830Z,6.01
2017-11-20T05:37:39.866Z,5.98
2017-11-20T05:39:32.844Z,5.99
2017-11-20T05:40:32.897Z,6.01
2017-11-20T05:42:25.894Z,5.97
2017-11-20T05:43:25.929Z,5.93
2017-11-20T05:45:18.909Z,5.94
2017-11-20T05:46:18.963Z,5.90
2017-11-20T05:48:11.962Z,5.94
2017-11-20T05:49:11.997Z,6.02
2017-11-20T05:51:04.995Z,6.08
2017-11-20T05:52:05.032Z,6.04
2017-11-20T05:53:58.008Z,6.04
2017-11-20T05:54:58.066Z,6.02
2017-11-20T05:56:51.069Z,5.91
2017-11-20T05:57:51.098Z,5.94
2017-11-20T05:59:44.080Z,5.94
2017-11-20T06:00:44.141Z,5.99
2017-11-20T06:02:37.142Z,5.97
2017-11-20T06:03:37.180Z,5.99
2017-11-20T06:05:30.154Z,5.99
2017-11-20T06:06:30.218Z,5.99
2017-11-20T06:08:23.208Z,5.97
2017-11-20T06:09:23.246Z,5.89
2017-11-20T06:11:16.244Z,5.98
2017-11-20T06:12:16.279Z,5.97
2017-11-20T06:14:09.257Z,5.97
2017-11-20T06:15:09.312Z,5.91
2017-11-20T06:17:02.311Z,5.99
2017-11-20T06:18:02.350Z,5.98
2017-11-20T06:19:55.328Z,5.91
2017-11-20T06:20:55.383Z,5.93
2017-11-20T06:22:48.892Z,5.93
2017-11-20T06:23:48.923Z,5.94
2017-11-20T06:25:41.913Z,5.98
2017-11-20T06:26:41.959Z,5.98
2017-11-20T06:28:34.961Z,5.97
2017-11-20T06:29:34.999Z,5.98
2017-11-20T06:31:28.002Z,5.93
2017-11-20T06:32:28.033Z,5.90
2017-11-20T06:34:21.009Z,5.90
2017-11-20T06:35:21.065Z,5.98
2017-11-20T06:37:14.072Z,5.91
2017-11-20T06:38:14.098Z,5.89
2017-11-20T06:40:07.137Z,5.94
2017-11-20T06:41:07.134Z,5.90
2017-11-20T06:43:00.133Z,5.93
2017-11-20T06:44:00.171Z,5.91
2017-11-20T06:45:53.144Z,6.01
2017-11-20T06:46:53.201Z,5.98
2017-11-20T06:48:46.199Z,6.01
2017-11-20T06:49:46.235Z,5.90
2017-11-20T06:51:39.234Z,5.93
2017-11-20T06:52:39.270Z,5.93
2017-11-20T06:54:32.253Z,5.93
2017-11-20T06:55:32.315Z,5.91
2017-11-20T06:57:25.298Z,5.91
2017-11-20T06:58:25.339Z,5.98
2017-11-20T07:00:18.315Z,5.91
2017-11-20T07:01:18.369Z,5.93
2017-11-20T07:03:11.383Z,5.93
2017-11-20T07:04:11.401Z,5.94
2017-11-20T07:06:04.382Z,5.99
2017-11-20T07:07:04.455Z,6.02
2017-11-20T07:08:57.435Z,5.93
2017-11-20T07:09:57.468Z,5.99
2017-11-20T07:11:50.465Z,6.07
2017-11-20T07:12:50.500Z,6.01
2017-11-20T07:14:43.483Z,6.01
2017-11-20T07:15:43.539Z,5.99
2017-11-20T07:17:36.576Z,6.02
2017-11-20T07:18:36.580Z,6.08
2017-11-20T07:20:29.554Z,6.02
2017-11-20T07:21:29.612Z,6.07
2017-11-20T07:23:22.606Z,5.99
2017-11-20T07:24:22.643Z,6.02
2017-11-20T07:26:15.648Z,6.07
2017-11-20T07:27:15.678Z,6.01
2017-11-20T07:29:08.664Z,5.97
2017-11-20T07:30:08.718Z,6.02
2017-11-20T07:32:01.710Z,6.01
2017-11-20T07:33:01.749Z,5.94
2017-11-20T07:34:54.721Z,5.90
2017-11-20T07:35:54.782Z,6.02
2017-11-20T07:37:47.775Z,5.93
2017-11-20T07:38:47.810Z,5.87
2017-11-20T07:40:40.793Z,5.94
2017-11-20T07:41:40.854Z,5.94
2017-11-20T07:43:33.850Z,5.87
2017-11-20T07:44:33.892Z,5.87
2017-11-20T07:46:26.861Z,5.87
2017-11-20T07:47:26.917Z,5.90
2017-11-20T07:49:19.917Z,5.82
2017-11-20T07:50:19.956Z,5.91
2017-11-20T07:52:12.950Z,5.84
2017-11-20T07:53:12.983Z,5.86
2017-11-20T07:55:05.967Z,5.86
2017-11-20T07:56:06.023Z,5.89
2017-11-20T07:57:59.025Z,5.90
2017-11-20T07:58:59.062Z,5.91
2017-11-20T08:00:52.032Z,5.89
2017-11-20T08:01:52.087Z,5.83
2017-11-20T08:03:45.089Z,5.82
2017-11-20T08:04:45.125Z,5.79
2017-11-20T08:06:38.103Z,5.91
2017-11-20T08:07:38.161Z,5.93
2017-11-20T08:09:31.167Z,5.94
2017-11-20T08:10:31.201Z,5.87
2017-11-20T08:12:24.197Z,5.90
2017-11-20T08:13:24.235Z,5.93
2017-11-20T08:15:17.216Z,5.91
2017-11-20T08:16:17.269Z,5.93
2017-11-20T08:18:10.311Z,5.97
2017-11-20T08:19:10.305Z,5.90
2017-11-20T08:21:03.281Z,5.93
2017-11-20T08:22:03.338Z,5.87
2017-11-20T08:23:56.338Z,5.87
2017-11-20T08:24:56.372Z,5.90
2017-11-20T08:26:49.348Z,5.84
2017-11-20T08:27:49.405Z,5.76
2017-11-20T08:29:42.401Z,5.71
2017-11-20T08:30:42.437Z,5.80
2017-11-20T08:32:35.478Z,5.80
2017-11-20T08:33:35.481Z,5.75
2017-11-20T08:35:28.447Z,5.80
2017-11-20T08:36:28.514Z,5.71
2017-11-20T08:38:21.501Z,5.71
2017-11-20T08:39:21.537Z,5.68
2017-11-20T08:41:14.516Z,5.75
2017-11-20T08:42:14.578Z,5.80
2017-11-20T08:44:07.573Z,5.69
2017-11-20T08:45:07.604Z,5.73
2017-11-20T08:47:00.588Z,5.75
2017-11-20T08:48:00.646Z,5.80
2017-11-20T08:49:53.644Z,5.71
2017-11-20T08:50:53.681Z,5.71
2017-11-20T08:52:46.677Z,5.76
2017-11-20T08:53:46.710Z,5.79
2017-11-20T08:55:39.690Z,5.71
2017-11-20T08:56:39.746Z,5.65
2017-11-20T08:58:32.744Z,5.72
2017-11-20T08:59:32.781Z,5.64
2017-11-20T09:01:25.764Z,5.64
2017-11-20T09:02:25.819Z,5.64
2017-11-20T09:04:18.813Z,5.61
2017-11-20T09:05:18.850Z,5.64
2017-11-20T09:07:11.841Z,5.54
2017-11-20T09:08:11.882Z,5.64
2017-11-20T09:10:04.882Z,5.64
2017-11-20T09:11:04.915Z,5.62
2017-11-20T09:12:57.918Z,5.62
2017-11-20T09:13:57.951Z,5.62
2017-11-20T09:15:50.926Z,5.64
2017-11-20T09:16:50.985Z,5.64
2017-11-20T09:18:44.000Z,5.69
2017-11-20T09:19:44.034Z,5.71
2017-11-20T09:21:37.008Z,5.75
2017-11-20T09:22:37.068Z,5.73
2017-11-20T09:24:30.074Z,5.82
2017-11-20T09:25:30.105Z,5.86
2017-11-20T09:27:23.098Z,5.73
2017-11-20T09:28:23.148Z,5.73
2017-11-20T09:30:16.133Z,5.84
2017-11-20T09:31:16.169Z,5.83
2017-11-20T09:33:09.165Z,5.73
2017-11-20T09:34:09.201Z,5.71
2017-11-20T09:36:02.175Z,5.71
2017-11-20T09:37:02.234Z,5.79
2017-11-20T09:38:55.231Z,5.79
2017-11-20T09:39:55.270Z,5.84
2017-11-20T09:41:48.249Z,5.73
2017-11-20T09:42:48.299Z,5.73
2017-11-20T09:44:41.295Z,5.72
2017-11-20T09:45:41.332Z,5.73
2017-11-20T09:47:34.308Z,5.71
2017-11-20T09:48:34.367Z,5.69
2017-11-20T09:50:27.369Z,5.75
2017-11-20T09:51:27.409Z,5.66
2017-11-20T09:53:20.401Z,5.64
2017-11-20T09:54:20.438Z,5.64
2017-11-20T09:56:13.412Z,5.64
2017-11-20T09:57:13.469Z,5.65
2017-11-20T09:59:06.469Z,5.75
2017-11-20T10:00:06.504Z,5.72
2017-11-20T10:01:59.494Z,5.61
2017-11-20T10:02:59.552Z,5.62
2017-11-20T10:04:52.556Z,5.68
2017-11-20T10:05:52.595Z,5.61
2017-11-20T10:07:45.578Z,5.65
2017-11-20T10:08:45.640Z,5.62
2017-11-20T10:10:38.627Z,5.68
2017-11-20T10:11:38.663Z,5.65
2017-11-20T10:13:31.661Z,5.71
2017-11-20T10:14:31.700Z,5.61
2017-11-20T10:16:24.680Z,5.75
2017-11-20T10:17:24.729Z,5.69
2017-11-20T10:19:17.733Z,5.64
2017-11-20T10:20:17.780Z,5.71
2017-11-20T10:22:10.801Z,5.66
2017-11-20T10:23:10.850Z,5.72
2017-11-20T10:25:03.854Z,5.69
2017-11-20T10:26:03.889Z,5.69
2017-11-20T10:27:56.872Z,5.72
2017-11-20T10:28:56.932Z,5.72
2017-11-20T10:30:49.928Z,5.75
2017-11-20T10:31:49.959Z,5.71
2017-11-20T10:33:42.959Z,5.73
2017-11-20T10:34:42.995Z,5.72
2017-11-20T10:36:35.970Z,5.72
2017-11-20T10:37:36.026Z,5.72
2017-11-20T10:39:29.025Z,5.73
2017-11-20T10:40:29.058Z,5.68
2017-11-20T10:42:22.037Z,5.82
2017-11-20T10:43:22.096Z,5.76
2017-11-20T10:45:15.090Z,5.79
2017-11-20T10:46:15.128Z,5.76
2017-11-20T10:48:08.110Z,5.75
2017-11-20T10:49:08.161Z,5.82
2017-11-20T10:51:01.165Z,5.84
2017-11-20T10:52:01.205Z,5.76
2017-11-20T10:53:54.209Z,5.72
2017-11-20T10:54:54.238Z,5.79
2017-11-20T10:56:47.214Z,5.73
2017-11-20T10:57:47.270Z,5.80
2017-11-20T10:59:40.273Z,5.73
2017-11-20T11:00:40.316Z,5.82
2017-11-20T11:02:33.300Z,5.69
2017-11-20T11:03:33.357Z,5.71
2017-11-20T11:05:26.366Z,5.73
2017-11-20T11:06:26.395Z,5.61
2017-11-20T11:08:19.377Z,5.64
2017-11-20T11:09:19.440Z,5.64
2017-11-20T11:11:12.433Z,5.64
2017-11-20T11:12:12.471Z,5.65
2017-11-20T11:14:05.474Z,5.72
2017-11-20T11:15:05.516Z,5.69
2017-11-20T11:16:58.482Z,5.66
2017-11-20T11:17:58.542Z,5.69
2017-11-20T11:19:51.544Z,5.73
2017-11-20T11:20:51.581Z,5.69
2017-11-20T11:22:44.563Z,5.68
2017-11-20T11:23:44.617Z,5.61
2017-11-20T11:25:37.622Z,5.61
2017-11-20T11:26:37.658Z,5.57
2017-11-20T11:28:30.649Z,5.54
2017-11-20T11:29:30.693Z,5.54
2017-11-20T11:31:23.691Z,5.64
2017-11-20T11:32:23.729Z,5.57
2017-11-20T11:34:16.728Z,5.64
2017-11-20T11:35:16.767Z,5.62
2017-11-20T11:37:09.758Z,5.65
2017-11-20T11:38:09.800Z,5.53
2017-11-20T11:40:02.798Z,5.53
2017-11-20T11:41:02.834Z,5.59
2017-11-20T11:42:55.829Z,5.50
2017-11-20T11:43:55.867Z,5.65
2017-11-20T11:45:48.863Z,5.56
2017-11-20T11:46:48.899Z,5.61
2017-11-20T11:48:41.889Z,5.50
2017-11-20T11:49:41.957Z,5.59
2017-11-20T11:51:34.945Z,5.69
2017-11-20T11:52:34.978Z,5.68
2017-11-20T11:54:27.978Z,5.61
2017-11-20T11:55:28.016Z,5.69
2017-11-20T11:57:20.986Z,5.65
2017-11-20T11:58:21.050Z,5.66
2017-11-20T12:00:14.055Z,5.57
2017-11-20T12:01:14.086Z,5.51
2017-11-20T12:03:07.060Z,5.59
2017-11-20T12:04:07.118Z,5.54
2017-11-20T12:06:00.114Z,5.56
2017-11-20T12:07:00.149Z,5.53
2017-11-20T12:08:53.125Z,5.57
2017-11-20T12:09:53.191Z,5.53
2017-11-20T12:11:46.186Z,5.54
2017-11-20T12:12:46.220Z,5.46
2017-11-20T12:14:39.223Z,5.48
2017-11-20T12:15:39.258Z,5.61
2017-11-20T12:17:32.240Z,5.46
2017-11-20T12:18:32.293Z,5.54
2017-11-20T12:20:25.294Z,5.54
2017-11-20T12:21:25.328Z,5.59
2017-11-20T12:23:18.310Z,5.53
2017-11-20T12:24:18.364Z,5.50
2017-11-20T12:26:11.376Z,5.54
2017-11-20T12:27:11.396Z,5.65
2017-11-20T12:29:04.373Z,5.54
2017-11-20T12:30:04.443Z,5.50
2017-11-20T12:31:57.433Z,5.53
2017-11-20T12:32:57.468Z,5.66
2017-11-20T12:34:50.530Z,5.66
2017-11-20T12:35:50.503Z,5.66
2017-11-20T12:37:43.480Z,5.73
2017-11-20T12:38:43.538Z,5.79
2017-11-20T12:40:36.537Z,5.68
2017-11-20T12:41:36.578Z,5.64
2017-11-20T12:43:29.551Z,5.65
2017-11-20T12:44:29.610Z,5.68
2017-11-20T12:46:22.608Z,5.59
2017-11-20T12:47:22.644Z,5.61
2017-11-20T12:49:15.656Z,5.59
2017-11-20T12:50:15.683Z,5.56
2017-11-20T12:52:08.695Z,5.54
2017-11-20T12:53:08.722Z,5.62
2017-11-20T12:55:01.752Z,5.54
2017-11-20T12:56:01.759Z,5.59
2017-11-20T12:57:54.736Z,5.68
2017-11-20T12:58:54.797Z,5.64
2017-11-20T13:00:47.795Z,5.59
2017-11-20T13:01:47.833Z,5.68
2017-11-20T13:03:40.837Z,5.61
2017-11-20T13:04:40.872Z,5.66
2017-11-20T13:06:33.880Z,5.62
2017-11-20T13:07:33.917Z,5.66
2017-11-20T13:09:26.904Z,5.62
2017-11-20T13:10:26.953Z,5.62
2017-11-20T13:12:19.960Z,5.66
2017-11-20T13:13:20.002Z,5.64
2017-11-20T13:15:12.995Z,5.62
2017-11-20T13:16:13.029Z,5.64
2017-11-20T13:18:06.008Z,5.64
2017-11-20T13:19:06.065Z,5.65
2017-11-20T13:20:59.074Z,5.71
2017-11-20T13:21:59.093Z,5.72
2017-11-20T13:23:52.078Z,5.65
2017-11-20T13:24:52.137Z,5.66
2017-11-20T13:26:45.142Z,5.68
2017-11-20T13:27:45.167Z,5.64
2017-11-20T13:29:38.142Z,5.79
2017-11-20T13:30:38.210Z,5.65
2017-11-20T13:32:31.195Z,5.80
2017-11-20T13:33:31.231Z,5.76
2017-11-20T13:35:24.227Z,5.71
2017-11-20T13:36:24.266Z,5.75
2017-11-20T13:38:17.250Z,5.73
2017-11-20T13:39:17.302Z,5.69
2017-11-20T13:41:10.305Z,5.76
2017-11-20T13:42:10.339Z,5.82
2017-11-20T13:44:03.836Z,5.73
2017-11-20T13:45:03.881Z,5.72
2017-11-20T13:46:56.877Z,5.72
2017-11-20T13:47:56.913Z,5.82
2017-11-20T13:49:49.890Z,5.79
2017-11-20T13:50:49.947Z,5.75
2017-11-20T13:52:42.944Z,5.82
2017-11-20T13:53:42.979Z,5.80
2017-11-20T13:55:35.980Z,5.79
2017-11-20T13:56:36.016Z,5.75
2017-11-20T13:58:29.011Z,5.79
2017-11-20T13:59:29.066Z,5.76
2017-11-20T14:01:22.063Z,5.80
2017-11-20T14:02:22.125Z,5.71
2017-11-20T14:04:15.079Z,5.76
2017-11-20T14:05:15.132Z,5.82
2017-11-20T14:07:08.128Z,5.79
2017-11-20T14:08:08.164Z,5.75
2017-11-20T14:10:01.145Z,5.83
2017-11-20T14:11:01.202Z,5.71
2017-11-20T14:12:54.201Z,5.84
2017-11-20T14:13:54.246Z,5.80
2017-11-20T14:15:47.232Z,5.73
2017-11-20T14:16:47.268Z,5.79
2017-11-20T14:18:40.250Z,5.80
2017-11-20T14:19:40.307Z,5.76
2017-11-20T14:21:33.307Z,5.79
2017-11-20T14:22:33.340Z,5.87
2017-11-20T14:24:26.314Z,5.91
2017-11-20T14:25:26.371Z,5.76
2017-11-20T14:27:19.369Z,5.82
2017-11-20T14:28:19.403Z,5.80
2017-11-20T14:30:12.378Z,5.89
2017-11-20T14:31:12.433Z,5.84
2017-11-20T14:33:05.473Z,5.94
2017-11-20T14:34:05.465Z,5.84
2017-11-20T14:35:58.464Z,5.93
2017-11-20T14:36:58.498Z,5.84
2017-11-20T14:38:51.477Z,5.98
2017-11-20T14:39:51.528Z,5.93
2017-11-20T14:41:44.526Z,5.94
2017-11-20T14:42:44.561Z,5.90
2017-11-20T14:44:38.056Z,5.97
2017-11-20T14:45:38.100Z,6.04
2017-11-20T14:47:31.254Z,5.98
2017-11-20T14:48:31.143Z,5.91
2017-11-20T14:50:24.116Z,6.02
2017-11-20T14:51:24.174Z,5.90
2017-11-20T14:53:17.176Z,5.99
2017-11-20T14:54:17.204Z,5.99
2017-11-20T14:56:10.205Z,6.08
2017-11-20T14:57:10.239Z,6.05
2017-11-20T14:59:03.722Z,6.11
2017-11-20T15:00:03.778Z,6.07
2017-11-20T15:01:56.777Z,6.09
2017-11-20T15:02:56.815Z,6.11
2017-11-20T15:04:49.798Z,6.12
2017-11-20T15:05:49.852Z,6.09
2017-11-20T15:07:42.845Z,6.11
2017-11-20T15:08:42.882Z,6.16
2017-11-20T15:10:36.369Z,6.20
2017-11-20T15:11:36.426Z,6.16
2017-11-20T15:13:29.422Z,6.14
2017-11-20T15:14:29.457Z,6.22
2017-11-20T15:16:22.459Z,6.26
2017-11-20T15:17:22.490Z,6.27
2017-11-20T15:19:15.466Z,6.26
2017-11-20T15:20:15.522Z,6.26
2017-11-20T15:22:08.523Z,6.24
2017-11-20T15:23:08.581Z,6.27
2017-11-20T15:25:01.555Z,6.27
2017-11-20T15:26:01.659Z,6.30
2017-11-20T15:27:54.604Z,6.28
2017-11-20T15:28:54.628Z,6.24
2017-11-20T15:30:47.615Z,6.28
2017-11-20T15:31:47.664Z,6.28
2017-11-20T15:33:40.673Z,6.31
2017-11-20T15:34:40.699Z,6.28
2017-11-20T15:36:33.721Z,6.38
2017-11-20T15:37:33.733Z,6.36
2017-11-20T15:39:26.714Z,6.39
2017-11-20T15:40:26.770Z,6.30
2017-11-20T15:42:19.791Z,6.31
2017-11-20T15:43:19.827Z,6.41
2017-11-20T15:45:12.844Z,6.39
2017-11-20T15:46:12.900Z,6.41
2017-11-20T15:48:05.958Z,6.45
2017-11-20T15:49:05.938Z,6.44
2017-11-20T15:50:58.907Z,6.52
2017-11-20T15:51:58.963Z,6.51
2017-11-20T15:53:51.962Z,6.46
2017-11-20T15:54:52.004Z,6.56
2017-11-20T15:56:45.005Z,6.57
2017-11-20T15:57:45.038Z,6.60
2017-11-20T15:59:38.020Z,6.57
2017-11-20T16:00:38.073Z,6.57
2017-11-20T16:02:31.584Z,6.59
2017-11-20T16:03:31.615Z,6.60
2017-11-20T16:05:24.603Z,6.59
2017-11-20T16:06:24.661Z,6.57
2017-11-20T16:08:17.658Z,6.62
2017-11-20T16:09:17.692Z,6.67
2017-11-20T16:11:13.189Z,6.66
2017-11-20T16:12:13.256Z,6.70
2017-11-20T16:14:06.277Z,6.62
2017-11-20T16:15:06.282Z,6.67
2017-11-20T16:16:59.291Z,6.62
2017-11-20T16:17:59.353Z,6.67
2017-11-20T16:19:52.322Z,6.74
2017-11-20T16:20:52.373Z,6.69
2017-11-20T16:22:45.378Z,6.74
2017-11-20T16:23:45.416Z,6.75
2017-11-20T16:25:38.400Z,6.75
2017-11-20T16:26:38.458Z,6.69
2017-11-20T16:28:31.456Z,6.82
2017-11-20T16:29:31.490Z,6.79
2017-11-20T16:31:24.472Z,6.81
2017-11-20T16:32:24.528Z,6.74
2017-11-20T16:34:17.531Z,6.77
2017-11-20T16:35:17.569Z,6.75
2017-11-20T16:37:10.608Z,6.77
2017-11-20T16:38:10.605Z,6.79
2017-11-20T16:40:03.582Z,6.79
2017-11-20T16:41:03.641Z,6.77
2017-11-20T16:42:58.152Z,6.85
2017-11-20T16:43:58.183Z,6.82
2017-11-20T16:45:51.170Z,6.87
2017-11-20T16:46:51.217Z,6.79
2017-11-20T16:48:44.724Z,6.95
2017-11-20T16:49:44.761Z,6.88
2017-11-20T16:51:37.765Z,6.81
2017-11-20T16:52:37.800Z,6.87
2017-11-20T16:54:30.951Z,6.85
2017-11-20T16:55:30.866Z,6.84
2017-11-20T16:57:23.865Z,6.92
2017-11-20T16:58:23.900Z,6.87
2017-11-20T17:00:17.387Z,6.89
2017-11-20T17:01:17.440Z,6.89
2017-11-20T17:03:10.947Z,6.87
2017-11-20T17:04:10.999Z,6.89
2017-11-20T17:06:03.956Z,6.88
2017-11-20T17:07:04.011Z,6.92
2017-11-20T17:08:57.008Z,6.89
2017-11-20T17:09:57.051Z,6.85
2017-11-20T17:11:50.536Z,6.96
2017-11-20T17:12:50.587Z,6.97
2017-11-20T17:14:44.097Z,6.96
2017-11-20T17:15:44.129Z,6.92
2017-11-20T17:17:37.130Z,7.03
2017-11-20T17:18:37.170Z,7.00
2017-11-20T17:20:30.140Z,7.03
2017-11-20T17:21:30.201Z,6.97
2017-11-20T17:23:23.198Z,7.06
2017-11-20T17:24:23.231Z,7.02
2017-11-20T17:26:16.720Z,7.05
2017-11-20T17:27:16.776Z,6.97
2017-11-20T17:29:09.782Z,7.07
2017-11-20T17:30:09.821Z,7.05
2017-11-20T17:32:02.800Z,7.11
2017-11-20T17:33:02.852Z,6.99
2017-11-20T17:34:56.358Z,7.13
2017-11-20T17:35:56.391Z,7.10
2017-11-20T17:37:49.900Z,7.11
2017-11-20T17:38:49.933Z,7.14
2017-11-20T17:40:42.915Z,7.25
2017-11-20T17:41:42.967Z,7.24
2017-11-20T17:43:35.965Z,7.25
2017-11-20T17:44:35.999Z,7.31
2017-11-20T17:46:29.484Z,7.31
2017-11-20T17:47:29.551Z,7.31
2017-11-20T17:49:23.056Z,7.28
2017-11-20T17:50:23.093Z,7.28
2017-11-20T17:52:16.075Z,7.31
2017-11-20T17:53:16.129Z,7.32
2017-11-20T17:55:09.126Z,7.31
2017-11-20T17:56:09.164Z,7.28
2017-11-20T17:58:02.169Z,7.43
2017-11-20T17:59:02.230Z,7.47
2017-11-20T18:00:55.681Z,7.48
2017-11-20T18:01:55.737Z,7.48
2017-11-20T18:03:49.245Z,7.40
2017-11-20T18:04:49.281Z,7.48
2017-11-20T18:06:42.256Z,7.51
2017-11-20T18:07:42.315Z,7.53
2017-11-20T18:09:35.356Z,7.50
2017-11-20T18:10:35.348Z,7.50
2017-11-20T18:12:28.335Z,7.51
2017-11-20T18:13:28.390Z,7.47
2017-11-20T18:15:21.909Z,7.56
2017-11-20T18:16:21.936Z,7.61
2017-11-20T18:18:14.942Z,7.60
2017-11-20T18:19:14.999Z,7.63
2017-11-20T18:21:07.950Z,7.67
2017-11-20T18:22:08.008Z,7.66
2017-11-20T18:24:01.005Z,7.67
2017-11-20T18:25:01.041Z,7.66
2017-11-20T18:26:54.177Z,7.67
2017-11-20T18:27:54.339Z,7.72
2017-11-20T18:29:47.075Z,7.69
2017-11-20T18:30:47.123Z,7.73
2017-11-20T18:32:40.087Z,7.72
2017-11-20T18:33:40.144Z,7.73
2017-11-20T18:35:33.162Z,7.77
2017-11-20T18:36:33.617Z,7.80
2017-11-20T18:38:27.083Z,7.85
2017-11-20T18:39:27.107Z,7.76
2017-11-20T18:41:20.088Z,7.88
2017-11-20T18:42:20.139Z,7.87
2017-11-20T18:44:13.139Z,7.85
2017-11-20T18:45:13.175Z,7.87
2017-11-20T18:47:06.530Z,7.93
2017-11-20T18:48:06.680Z,7.85
2017-11-20T18:49:59.575Z,8.01
2017-11-20T18:50:59.670Z,8.01
2017-11-20T18:52:52.664Z,8.10
2017-11-20T18:53:52.723Z,8.01
2017-11-20T18:55:45.731Z,8.00
2017-11-20T18:56:45.875Z,8.01
2017-11-20T18:58:39.332Z,8.09
2017-11-20T18:59:39.370Z,8.15
2017-11-20T19:01:32.357Z,8.10
2017-11-20T19:02:32.412Z,8.10
2017-11-20T19:04:25.480Z,8.18
2017-11-20T19:05:25.449Z,8.12
2017-11-20T19:07:18.477Z,8.19
2017-11-20T19:08:18.486Z,8.19
2017-11-20T19:10:11.558Z,8.20
2017-11-20T19:11:11.520Z,8.23